Time;durP1;ratioP1;P1;durP2;ratioP2;P2;SDS_P1;SDS_P2;PMS_P1;PMS_P2;Temp;Humidity;BMP_temperature;BMP_pressure;BME280_temperature;BME280_humidity;BME280_pressure;Samples;Min_cycle;Max_cycle;Signal;HPM_P1;HPM_P2
2022/06/11 00:00:27;;;;;;;1.20;0.70;;;17.30;99.90;;;;;;5075458;28;20478;-80
2022/06/11 00:02:54;;;;;;;2.30;0.70;;;17.30;99.90;;;;;;5075383;28;20478;-79
2022/06/11 00:05:23;;;;;;;1.10;0.60;;;17.30;56.40;;;;;;5075682;28;20489;-79
2022/06/11 00:07:51;;;;;;;1.10;0.80;;;17.30;99.90;;;;;;5076118;28;20537;-78
2022/06/11 00:10:19;;;;;;;1.80;0.70;;;17.30;1.00;;;;;;5075251;28;20478;-78
2022/06/11 00:12:46;;;;;;;1.23;0.67;;;17.30;1.00;;;;;;5075469;28;20492;-79
2022/06/11 00:15:13;;;;;;;2.00;0.90;;;17.30;99.90;;;;;;5075566;28;20516;-79
2022/06/11 00:17:40;;;;;;;2.00;0.70;;;17.20;99.90;;;;;;5076019;28;20462;-78
2022/06/11 00:20:09;;;;;;;8.30;0.80;;;17.20;99.90;;;;;;5074869;28;20500;-78
2022/06/11 00:22:39;;;;;;;1.40;0.70;;;17.10;99.90;;;;;;5075520;28;20534;-78
2022/06/11 00:25:07;;;;;;;1.03;0.70;;;17.20;1.00;;;;;;5074870;28;20530;-78
2022/06/11 00:27:34;;;;;;;2.23;0.87;;;17.20;99.90;;;;;;5076389;28;20470;-78
2022/06/11 00:30:01;;;;;;;1.20;0.90;;;17.20;1.00;;;;;;5075621;28;20541;-78
2022/06/11 00:32:29;;;;;;;1.67;0.83;;;17.20;1.00;;;;;;5076277;28;20502;-77
2022/06/11 00:34:59;;;;;;;2.00;0.70;;;17.20;99.90;;;;;;5074759;28;20730;-78
2022/06/11 00:37:26;;;;;;;1.07;0.70;;;17.20;99.90;;;;;;5075120;28;20450;-78
2022/06/11 00:39:54;;;;;;;0.80;0.70;;;17.20;99.90;;;;;;5075839;28;20447;-78
2022/06/11 00:42:25;;;;;;;1.30;0.70;;;17.20;99.90;;;;;;5074620;28;20532;-77
2022/06/11 00:45:12;;;;;;;1.20;0.70;;;17.20;1.00;;;;;;5075098;28;20942;-79
2022/06/11 00:47:39;;;;;;;0.90;0.60;;;17.20;1.00;;;;;;5074326;28;20489;-79
2022/06/11 00:50:18;;;;;;;1.93;0.80;;;17.20;99.90;;;;;;5077083;28;20962;-79
2022/06/11 00:52:46;;;;;;;1.87;0.77;;;17.20;99.90;;;;;;5079858;28;20889;-78
2022/06/11 00:55:31;;;;;;;1.20;0.70;;;17.20;99.90;;;;;;5079830;28;20953;-78
2022/06/11 00:58:03;;;;;;;0.83;0.70;;;17.20;99.90;;;;;;5079209;28;20489;-77
2022/06/11 01:00:32;;;;;;;1.00;0.70;;;17.10;1.00;;;;;;5079006;28;20438;-78
2022/06/11 01:02:59;;;;;;;3.57;0.77;;;17.20;99.90;;;;;;5078333;28;20549;-77
2022/06/11 01:05:29;;;;;;;1.43;0.70;;;17.10;99.90;;;;;;5078661;28;20461;-78
2022/06/11 01:08:28;;;;;;;2.60;0.80;;;17.10;99.90;;;;;;5078621;28;20946;-77
2022/06/11 01:11:16;;;;;;;1.03;0.70;;;17.10;1.00;;;;;;5078336;28;20544;-79
2022/06/11 01:13:55;;;;;;;1.80;0.80;;;17.10;1.00;;;;;;5078212;28;20497;-77
2022/06/11 01:16:28;;;;;;;1.03;0.80;;;17.10;12.40;;;;;;5078085;28;20446;-77
2022/06/11 01:19:06;;;;;;;1.93;0.80;;;17.00;1.00;;;;;;5077498;28;20455;-77
2022/06/11 01:21:44;;;;;;;0.97;0.60;;;16.90;99.90;;;;;;5078518;28;20474;-77
2022/06/11 01:24:44;;;;;;;2.27;0.77;;;16.90;1.00;;;;;;5077615;28;20529;-77
2022/06/11 01:27:42;;;;;;;2.27;0.63;;;16.80;99.90;;;;;;5078234;28;20874;-78
2022/06/11 01:30:13;;;;;;;0.73;0.50;;;16.80;99.90;;;;;;5077697;28;20477;-78
2022/06/11 01:32:51;;;;;;;0.97;0.60;;;16.80;1.00;;;;;;5078346;28;20490;-78
2022/06/11 01:35:40;;;;;;;0.80;0.57;;;16.80;1.00;;;;;;5078720;28;20524;-78
2022/06/11 01:38:19;;;;;;;1.00;0.70;;;16.70;1.00;;;;;;5078116;28;20454;-78
2022/06/11 01:40:52;;;;;;;0.90;0.60;;;16.80;28.40;;;;;;5078520;28;20519;-78
2022/06/11 01:43:24;;;;;;;0.90;0.60;;;16.80;1.00;;;;;;5078081;28;20489;-78
2022/06/11 01:45:53;;;;;;;0.90;0.60;;;16.80;1.00;;;;;;5077014;28;20532;-78
2022/06/11 01:48:24;;;;;;;0.90;0.60;;;16.90;99.90;;;;;;5059625;28;20481;-78
2022/06/11 01:51:00;;;;;;;0.70;0.50;;;16.90;38.20;;;;;;5077837;28;20573;-78
2022/06/11 01:53:39;;;;;;;1.00;0.70;;;16.90;1.00;;;;;;5077729;28;20931;-78
2022/06/11 01:56:35;;;;;;;0.90;0.50;;;16.90;1.00;;;;;;5077931;28;20549;-78
2022/06/11 01:59:22;;;;;;;1.10;0.60;;;16.80;99.90;;;;;;5074638;28;20549;-78
2022/06/11 02:02:03;;;;;;;1.20;0.50;;;16.80;99.90;;;;;;5074912;28;20890;-76
2022/06/11 02:04:40;;;;;;;1.20;0.40;;;16.80;1.00;;;;;;5074665;28;20540;-76
2022/06/11 02:07:15;;;;;;;0.80;0.53;;;16.70;1.00;;;;;;5073148;28;20492;-76
2022/06/11 02:09:51;;;;;;;1.87;0.60;;;16.80;99.90;;;;;;5074075;28;20552;-76
2022/06/11 02:12:24;;;;;;;1.53;0.60;;;16.70;99.90;;;;;;5075249;28;20969;-76
2022/06/11 02:14:56;;;;;;;1.50;0.60;;;16.70;99.90;;;;;;5075738;28;20510;-76
2022/06/11 02:17:27;;;;;;;0.60;0.50;;;16.60;99.90;;;;;;5077405;28;20486;-76
2022/06/11 02:20:02;;;;;;;1.53;0.50;;;16.60;99.90;;;;;;5076584;28;20447;-76
2022/06/11 02:22:33;;;;;;;0.80;0.40;;;16.60;99.90;;;;;;5077054;28;20435;-76
2022/06/11 02:25:07;;;;;;;0.80;0.60;;;16.60;1.00;;;;;;5076418;28;20533;-75
2022/06/11 02:27:37;;;;;;;0.80;0.60;;;16.60;1.00;;;;;;5076250;28;20525;-75
2022/06/11 02:30:09;;;;;;;1.30;0.60;;;16.60;99.90;;;;;;5075454;28;20870;-75
2022/06/11 02:32:38;;;;;;;0.83;0.50;;;16.50;1.00;;;;;;5075882;28;20482;-76
2022/06/11 02:35:08;;;;;;;2.03;0.50;;;16.40;99.90;;;;;;5075807;28;20486;-77
2022/06/11 02:37:38;;;;;;;1.67;0.60;;;16.50;1.00;;;;;;5075569;28;20508;-78
2022/06/11 02:40:10;;;;;;;0.80;0.70;;;16.60;1.00;;;;;;5076154;28;20537;-77
2022/06/11 02:42:37;;;;;;;1.27;0.60;;;16.60;99.90;;;;;;5075652;28;20447;-76
2022/06/11 02:45:06;;;;;;;0.70;0.50;;;16.70;99.90;;;;;;5075825;28;20454;-76
2022/06/11 02:47:33;;;;;;;0.60;0.60;;;16.70;1.00;;;;;;5075730;28;20466;-75
2022/06/11 02:50:01;;;;;;;1.27;0.57;;;16.70;99.70;;;;;;5075512;28;20937;-76
2022/06/11 02:52:28;;;;;;;0.70;0.60;;;16.70;99.90;;;;;;5074444;28;20572;-77
2022/06/11 02:54:55;;;;;;;0.90;0.50;;;16.70;99.90;;;;;;5075551;28;20545;-77
2022/06/11 02:57:25;;;;;;;0.90;0.60;;;16.80;99.90;;;;;;5075062;28;20826;-77
2022/06/11 02:59:57;;;;;;;1.23;0.53;;;16.80;31.20;;;;;;5075982;28;20877;-78
2022/06/11 03:02:26;;;;;;;0.70;0.50;;;16.90;1.00;;;;;;5075909;28;20501;-77
2022/06/11 03:04:53;;;;;;;0.90;0.60;;;16.90;1.00;;;;;;5078042;28;20469;-78
2022/06/11 03:07:22;;;;;;;2.10;0.60;;;16.90;57.90;;;;;;5077010;28;20863;-77
2022/06/11 03:09:49;;;;;;;2.30;1.30;;;16.80;99.90;;;;;;5076524;28;20760;-79
2022/06/11 03:12:17;;;;;;;0.90;0.60;;;16.80;99.90;;;;;;5077225;28;21008;-79
2022/06/11 03:14:44;;;;;;;1.30;0.50;;;16.60;99.90;;;;;;5075385;28;20824;-79
2022/06/11 03:17:13;;;;;;;0.90;0.60;;;16.50;99.90;;;;;;5076236;28;20580;-79
2022/06/11 03:19:41;;;;;;;2.20;0.70;;;16.40;99.90;;;;;;5077067;28;20497;-79
2022/06/11 03:22:08;;;;;;;0.70;0.50;;;16.30;99.90;;;;;;5076332;28;20455;-78
2022/06/11 03:24:37;;;;;;;0.80;0.60;;;16.20;99.90;;;;;;5076557;28;20446;-78
2022/06/11 03:27:04;;;;;;;1.10;0.60;;;16.10;1.00;;;;;;5075871;28;20549;-78
2022/06/11 03:29:32;;;;;;;0.90;0.60;;;16.00;99.90;;;;;;5075666;28;20466;-78
2022/06/11 03:31:58;;;;;;;1.40;0.60;;;16.00;99.90;;;;;;5076573;28;20529;-78
2022/06/11 03:34:26;;;;;;;0.80;0.60;;;15.90;1.00;;;;;;5076567;28;20821;-78
2022/06/11 03:36:53;;;;;;;1.90;0.63;;;15.90;1.00;;;;;;5076306;28;20879;-79
2022/06/11 03:39:21;;;;;;;1.77;0.67;;;15.90;1.00;;;;;;5076035;28;20482;-79
2022/06/11 03:41:51;;;;;;;0.90;0.50;;;15.90;1.00;;;;;;5075588;28;20500;-79
2022/06/11 03:44:18;;;;;;;0.70;0.50;;;16.00;99.90;;;;;;5075262;28;20901;-79
2022/06/11 03:46:45;;;;;;;0.73;0.50;;;16.00;99.90;;;;;;5075656;28;20548;-78
2022/06/11 03:49:12;;;;;;;0.90;0.50;;;16.00;99.90;;;;;;5075185;28;21061;-78
2022/06/11 03:51:40;;;;;;;0.90;0.60;;;16.00;99.90;;;;;;5076058;28;20593;-78
2022/06/11 03:54:08;;;;;;;0.50;0.40;;;16.00;99.90;;;;;;5075693;28;21004;-79
2022/06/11 03:56:36;;;;;;;0.97;0.57;;;16.00;1.00;;;;;;5075890;28;20520;-79
2022/06/11 03:59:04;;;;;;;0.70;0.53;;;16.10;1.00;;;;;;5076406;28;20901;-79
2022/06/11 04:01:31;;;;;;;1.43;0.60;;;16.10;99.90;;;;;;5076273;28;20932;-78
2022/06/11 04:04:02;;;;;;;1.03;0.50;;;16.10;99.90;;;;;;5075599;28;20541;-79
2022/06/11 04:06:31;;;;;;;0.80;0.60;;;16.00;99.90;;;;;;5075912;28;20544;-78
2022/06/11 04:08:59;;;;;;;1.43;0.60;;;16.10;1.00;;;;;;5075132;28;20957;-78
2022/06/11 04:11:26;;;;;;;1.73;0.60;;;16.00;1.00;;;;;;5075406;28;20521;-78
2022/06/11 04:13:55;;;;;;;0.80;0.63;;;16.00;1.00;;;;;;5075871;28;20537;-78
2022/06/11 04:16:28;;;;;;;1.50;0.60;;;15.90;99.90;;;;;;5075545;28;20878;-78
2022/06/11 04:18:57;;;;;;;0.90;0.67;;;15.90;99.90;;;;;;5075523;28;20505;-79
2022/06/11 04:21:25;;;;;;;0.90;0.63;;;15.80;99.90;;;;;;5075341;28;20545;-78
2022/06/11 04:23:55;;;;;;;1.50;0.50;;;15.80;99.90;;;;;;5074979;28;20889;-79
2022/06/11 04:26:25;;;;;;;0.90;0.60;;;15.80;1.00;;;;;;5075886;28;20882;-79
2022/06/11 04:28:52;;;;;;;0.93;0.60;;;15.90;99.90;;;;;;5076209;28;20568;-79
2022/06/11 04:31:19;;;;;;;0.70;0.50;;;15.90;3.40;;;;;;5076136;28;20482;-78
2022/06/11 04:33:48;;;;;;;0.80;0.60;;;15.90;99.90;;;;;;5076292;28;20537;-78
2022/06/11 04:36:17;;;;;;;0.97;0.50;;;16.00;99.90;;;;;;5076572;28;20462;-78
2022/06/11 04:38:45;;;;;;;1.10;0.50;;;16.00;39.00;;;;;;5077447;28;20914;-78
2022/06/11 04:41:12;;;;;;;1.37;0.60;;;16.00;99.90;;;;;;5077504;28;20486;-79
2022/06/11 04:43:39;;;;;;;0.83;0.60;;;15.90;1.00;;;;;;5078151;28;20534;-78
2022/06/11 04:46:06;;;;;;;2.00;0.50;;;15.90;99.90;;;;;;5078350;28;20945;-78
2022/06/11 04:48:36;;;;;;;1.33;0.70;;;15.90;1.00;;;;;;5078269;28;20854;-78
2022/06/11 04:51:06;;;;;;;0.70;0.57;;;15.90;1.00;;;;;;5078661;28;20528;-77
2022/06/11 04:53:35;;;;;;;1.00;0.70;;;16.00;1.00;;;;;;5079214;28;20982;-78
2022/06/11 04:56:02;;;;;;;0.97;0.70;;;16.00;99.90;;;;;;5079091;28;20486;-79
2022/06/11 04:58:30;;;;;;;1.10;0.60;;;16.00;1.00;;;;;;5079249;28;20533;-78
2022/06/11 05:00:57;;;;;;;0.73;0.57;;;16.10;1.00;;;;;;5077815;28;20538;-78
2022/06/11 05:03:24;;;;;;;0.80;0.60;;;16.20;72.50;;;;;;5078473;28;20452;-79
2022/06/11 05:05:51;;;;;;;3.03;0.53;;;16.30;83.50;;;;;;5077849;28;20957;-78
2022/06/11 05:08:19;;;;;;;2.20;0.50;;;16.30;1.00;;;;;;5076968;28;20536;-76
2022/06/11 05:10:46;;;;;;;0.80;0.60;;;16.40;1.00;;;;;;5077121;28;20549;-76
2022/06/11 05:13:13;;;;;;;0.60;0.50;;;16.50;1.00;;;;;;5076167;28;20948;-76
2022/06/11 05:15:44;;;;;;;0.93;0.50;;;16.50;99.90;;;;;;5077555;28;20585;-76
2022/06/11 05:18:12;;;;;;;1.10;0.57;;;16.50;99.90;;;;;;5076761;28;20953;-77
2022/06/11 05:20:39;;;;;;;0.90;0.60;;;16.60;99.90;;;;;;5076953;28;20945;-76
2022/06/11 05:23:06;;;;;;;1.17;0.60;;;16.60;99.90;;;;;;5077672;28;20892;-77
2022/06/11 05:25:36;;;;;;;0.70;0.60;;;16.60;99.90;;;;;;5077746;28;20486;-75
2022/06/11 05:28:05;;;;;;;0.80;0.50;;;16.70;99.90;;;;;;5078714;28;20537;-75
2022/06/11 05:30:33;;;;;;;1.30;0.60;;;16.70;99.90;;;;;;5077625;28;20521;-76
2022/06/11 05:33:01;;;;;;;0.70;0.57;;;16.80;99.90;;;;;;5078629;28;20545;-76
2022/06/11 05:35:31;;;;;;;0.60;0.50;;;16.90;1.00;;;;;;5078400;28;20518;-76
2022/06/11 05:38:01;;;;;;;2.27;0.60;;;16.90;1.00;;;;;;5076412;28;20454;-76
2022/06/11 05:40:32;;;;;;;0.87;0.50;;;17.00;1.00;;;;;;5078285;28;20435;-74
2022/06/11 05:43:01;;;;;;;0.90;0.53;;;17.00;1.00;;;;;;5078466;28;20471;-75
2022/06/11 05:45:35;;;;;;;0.80;0.60;;;17.10;1.00;;;;;;5077623;28;20455;-75
2022/06/11 05:48:05;;;;;;;0.70;0.50;;;17.20;1.00;;;;;;5078184;28;20459;-79
2022/06/11 05:50:36;;;;;;;0.80;0.47;;;17.30;1.00;;;;;;5077770;28;20525;-80
2022/06/11 05:53:05;;;;;;;0.70;0.57;;;17.40;1.00;;;;;;5078188;28;20482;-80
2022/06/11 05:55:35;;;;;;;0.73;0.73;;;17.50;99.90;;;;;;5078251;28;20641;-76
2022/06/11 05:58:08;;;;;;;0.63;0.47;;;17.60;99.90;;;;;;5077750;28;20548;-76
2022/06/11 06:00:38;;;;;;;0.80;0.50;;;17.70;99.90;;;;;;5077673;28;20455;-76
2022/06/11 06:03:06;;;;;;;0.70;0.50;;;17.80;1.00;;;;;;5077383;28;20431;-78
2022/06/11 06:05:33;;;;;;;1.17;0.87;;;17.80;1.00;;;;;;5076698;28;20905;-77
2022/06/11 06:08:01;;;;;;;2.07;0.60;;;17.90;1.00;;;;;;5076789;28;20878;-76
2022/06/11 06:10:27;;;;;;;0.73;0.53;;;18.00;1.00;;;;;;5074900;28;20447;-76
2022/06/11 06:12:55;;;;;;;0.73;0.50;;;18.10;1.00;;;;;;5075302;28;21189;-76
2022/06/11 06:15:26;;;;;;;0.90;0.50;;;18.10;1.00;;;;;;5075541;28;20451;-76
2022/06/11 06:17:54;;;;;;;0.60;0.40;;;18.30;1.00;;;;;;5075702;28;20478;-76
2022/06/11 06:20:23;;;;;;;0.80;0.50;;;18.40;1.00;;;;;;5075687;28;20532;-76
2022/06/11 06:22:50;;;;;;;1.53;0.50;;;18.40;1.00;;;;;;5075364;28;20767;-75
2022/06/11 06:25:20;;;;;;;0.80;0.50;;;18.50;1.00;;;;;;5075614;28;20490;-76
2022/06/11 06:27:48;;;;;;;1.70;0.40;;;18.50;1.00;;;;;;5075789;28;20528;-75
2022/06/11 06:30:15;;;;;;;0.70;0.50;;;18.60;1.00;;;;;;5075352;28;20596;-76
2022/06/11 06:32:44;;;;;;;0.63;0.60;;;18.70;1.00;;;;;;5075184;28;21178;-76
2022/06/11 06:35:11;;;;;;;0.67;0.47;;;18.80;1.00;;;;;;5073837;28;20451;-75
2022/06/11 06:37:38;;;;;;;0.60;0.40;;;18.80;1.00;;;;;;5072937;28;21044;-74
2022/06/11 06:40:06;;;;;;;0.97;0.50;;;18.90;99.90;;;;;;5074798;28;20522;-73
2022/06/11 06:42:33;;;;;;;0.80;0.50;;;19.10;99.90;;;;;;5073604;28;20454;-74
2022/06/11 06:45:00;;;;;;;0.60;0.50;;;19.20;99.90;;;;;;5073764;28;20478;-74
2022/06/11 06:47:27;;;;;;;0.80;0.50;;;19.30;99.90;;;;;;5074325;28;20454;-74
2022/06/11 06:49:57;;;;;;;0.80;0.40;;;19.50;99.90;;;;;;5074530;28;20528;-74
2022/06/11 06:52:24;;;;;;;1.70;0.50;;;19.60;99.90;;;;;;5074368;28;21015;-74
2022/06/11 06:54:51;;;;;;;1.60;0.60;;;19.70;99.90;;;;;;5073978;28;20544;-73
2022/06/11 06:57:18;;;;;;;1.53;0.60;;;19.90;99.90;;;;;;5074728;28;20556;-74
2022/06/11 06:59:45;;;;;;;0.97;0.57;;;20.00;99.90;;;;;;5075133;28;20561;-74
2022/06/11 07:02:13;;;;;;;1.10;0.57;;;20.10;67.50;;;;;;5075808;28;20549;-73
2022/06/11 07:04:40;;;;;;;0.80;0.60;;;20.20;20.10;;;;;;5075314;28;20940;-74
2022/06/11 07:07:13;;;;;;;0.70;0.53;;;20.30;1.00;;;;;;5075250;28;20516;-74
2022/06/11 07:09:40;;;;;;;0.60;0.50;;;20.40;1.00;;;;;;5076372;28;20545;-74
2022/06/11 07:12:08;;;;;;;0.70;0.57;;;20.40;1.00;;;;;;5075465;28;20548;-75
2022/06/11 07:14:35;;;;;;;1.10;0.70;;;20.50;1.00;;;;;;5056294;28;20450;-73
2022/06/11 07:17:06;;;;;;;0.87;0.60;;;20.50;1.00;;;;;;5074424;28;20282;-75
2022/06/11 07:19:38;;;;;;;0.70;0.60;;;20.60;1.00;;;;;;5074280;28;20550;-75
2022/06/11 07:22:12;;;;;;;0.77;0.60;;;20.70;1.00;;;;;;5075162;28;20553;-73
2022/06/11 07:24:42;;;;;;;0.80;0.53;;;20.80;1.00;;;;;;5075029;28;20540;-73
2022/06/11 07:27:12;;;;;;;1.13;0.50;;;20.90;1.00;;;;;;5074655;28;20473;-74
2022/06/11 07:29:43;;;;;;;0.80;0.50;;;21.00;1.00;;;;;;5074013;28;20554;-73
2022/06/11 07:32:15;;;;;;;2.50;0.57;;;21.10;1.00;;;;;;5073745;28;20482;-74
2022/06/11 07:34:42;;;;;;;2.90;0.60;;;21.20;1.00;;;;;;5074407;28;20524;-74
2022/06/11 07:37:10;;;;;;;0.70;0.40;;;21.20;1.00;;;;;;5074136;28;20561;-74
2022/06/11 07:39:38;;;;;;;2.30;0.70;;;21.30;1.00;;;;;;5074478;28;20451;-74
2022/06/11 07:42:06;;;;;;;0.90;0.50;;;21.50;1.00;;;;;;5073533;28;20557;-73
2022/06/11 07:44:34;;;;;;;1.50;0.70;;;21.60;1.00;;;;;;5074087;28;21078;-73
2022/06/11 07:47:00;;;;;;;2.20;1.97;;;21.80;1.00;;;;;;5074006;28;20457;-73
2022/06/11 07:49:27;;;;;;;0.73;0.50;;;21.80;1.00;;;;;;5081270;28;20476;-75
2022/06/11 07:51:54;;;;;;;0.80;0.60;;;21.90;1.00;;;;;;5094688;28;20450;-76
2022/06/11 07:54:23;;;;;;;1.00;0.60;;;21.80;1.00;;;;;;5078368;28;20484;-78
2022/06/11 07:56:50;;;;;;;0.83;0.50;;;21.70;1.00;;;;;;5096206;28;20548;-78
2022/06/11 07:59:20;;;;;;;0.60;0.40;;;21.70;1.00;;;;;;5095759;28;20524;-78
2022/06/11 08:01:47;;;;;;;0.67;0.53;;;21.90;1.00;;;;;;5100029;28;20818;-78
2022/06/11 08:04:13;;;;;;;2.50;0.70;;;21.90;1.00;;;;;;5099654;28;20536;-77
2022/06/11 08:06:40;;;;;;;0.77;0.50;;;22.00;1.00;;;;;;5099243;28;20457;-78
2022/06/11 08:09:07;;;;;;;1.37;0.53;;;22.20;1.00;;;;;;5099980;28;20528;-78
2022/06/11 08:11:35;;;;;;;1.10;0.50;;;22.40;1.00;;;;;;5099353;28;20511;-79
2022/06/11 08:14:02;;;;;;;0.60;0.50;;;22.50;1.00;;;;;;5098319;28;20505;-78
2022/06/11 08:16:29;;;;;;;0.70;0.50;;;22.70;1.00;;;;;;5084524;28;20938;-79
2022/06/11 08:18:56;;;;;;;1.73;0.60;;;22.60;1.00;;;;;;5092050;28;20549;-77
2022/06/11 08:21:23;;;;;;;0.70;0.50;;;22.60;1.00;;;;;;5094007;28;20457;-77
2022/06/11 08:23:50;;;;;;;0.90;0.60;;;22.60;1.00;;;;;;5098483;28;20524;-78
2022/06/11 08:26:17;;;;;;;1.97;0.50;;;22.60;1.00;;;;;;5098907;28;20496;-78
2022/06/11 08:28:45;;;;;;;1.43;0.60;;;22.60;1.00;;;;;;5099883;28;20540;-77
2022/06/11 08:31:12;;;;;;;0.70;0.50;;;22.80;1.00;;;;;;5099621;28;20505;-77
2022/06/11 08:33:39;;;;;;;1.13;0.57;;;22.80;1.00;;;;;;5099459;28;20575;-78
2022/06/11 08:36:10;;;;;;;1.60;0.60;;;22.80;1.00;;;;;;5102508;28;20453;-78
2022/06/11 08:38:37;;;;;;;1.30;0.60;;;22.90;1.00;;;;;;5100497;28;20873;-78
2022/06/11 08:41:10;;;;;;;1.17;0.50;;;23.00;1.00;;;;;;5102281;28;20457;-78
2022/06/11 08:43:41;;;;;;;1.47;0.60;;;23.30;1.00;;;;;;5100516;28;20484;-77
2022/06/11 08:46:15;;;;;;;0.60;0.53;;;23.40;1.00;;;;;;5102359;28;20485;-79
2022/06/11 08:48:46;;;;;;;0.87;0.60;;;23.40;1.00;;;;;;5099837;28;20540;-78
2022/06/11 08:51:19;;;;;;;1.83;0.50;;;23.40;1.00;;;;;;5099510;28;20481;-78
2022/06/11 08:53:49;;;;;;;3.40;0.70;;;23.50;1.00;;;;;;5082888;28;20492;-78
2022/06/11 08:56:23;;;;;;;1.87;0.60;;;23.70;1.00;;;;;;5099890;28;20828;-78
2022/06/11 08:59:12;;;;;;;0.93;0.60;;;23.60;1.00;;;;;;5099300;28;20471;-78
2022/06/11 09:01:51;;;;;;;1.27;0.50;;;23.70;1.00;;;;;;5098030;28;20563;-77
2022/06/11 09:04:35;;;;;;;0.80;0.50;;;23.90;1.00;;;;;;5098953;28;20807;-76
2022/06/11 09:07:16;;;;;;;1.60;0.50;;;23.90;1.00;;;;;;5079648;28;20454;-78
2022/06/11 09:09:57;;;;;;;0.60;0.47;;;23.90;1.00;;;;;;5098027;28;20449;-79
2022/06/11 09:12:59;;;;;;;0.60;0.50;;;24.00;1.00;;;;;;5097420;28;20519;-78
2022/06/11 09:15:36;;;;;;;0.80;0.60;;;24.00;1.00;;;;;;5077355;28;20521;-78
2022/06/11 09:18:42;;;;;;;0.80;0.50;;;24.00;1.00;;;;;;5080128;28;20481;-78
2022/06/11 09:21:19;;;;;;;1.00;0.60;;;24.30;1.00;;;;;;5097606;28;20554;-78
2022/06/11 09:24:11;;;;;;;0.80;0.60;;;24.50;1.00;;;;;;5098480;28;20495;-78
2022/06/11 09:26:44;;;;;;;0.90;0.50;;;24.70;1.00;;;;;;5096624;28;20558;-77
2022/06/11 09:29:22;;;;;;;1.27;0.60;;;24.90;1.00;;;;;;5097244;28;20446;-80
2022/06/11 09:31:55;;;;;;;0.80;0.70;;;25.20;1.00;;;;;;5097754;28;20477;-79
2022/06/11 09:34:30;;;;;;;2.13;0.70;;;25.40;1.00;;;;;;5098178;28;20853;-79
2022/06/11 09:37:14;;;;;;;1.80;0.70;;;25.20;1.00;;;;;;5097001;28;20489;-78
2022/06/11 09:39:43;;;;;;;1.53;0.60;;;25.30;1.00;;;;;;5093725;28;20503;-79
2022/06/11 09:42:52;;;;;;;1.10;0.50;;;25.30;1.00;;;;;;5098041;28;20942;-80
2022/06/11 09:45:26;;;;;;;0.70;0.50;;;25.20;1.00;;;;;;5027273;28;20894;-78
2022/06/11 09:48:02;;;;;;;0.93;0.50;;;24.90;1.00;;;;;;5077344;28;20442;-79
2022/06/11 09:50:37;;;;;;;1.30;0.60;;;25.10;1.00;;;;;;5077401;28;20450;-78
2022/06/11 09:53:17;;;;;;;3.43;0.50;;;25.30;1.00;;;;;;5081896;28;20576;-78
2022/06/11 09:55:50;;;;;;;0.73;0.50;;;25.60;1.00;;;;;;5089174;28;21110;-77
2022/06/11 09:58:26;;;;;;;1.20;0.60;;;26.00;1.00;;;;;;5096792;28;20446;-79
2022/06/11 10:00:58;;;;;;;2.47;1.30;;;25.90;1.00;;;;;;5097217;28;20453;-77
2022/06/11 10:03:35;;;;;;;2.20;0.87;;;26.20;1.00;;;;;;5097242;28;20849;-79
2022/06/11 10:06:09;;;;;;;0.80;0.60;;;26.20;1.00;;;;;;5097143;28;20884;-78
2022/06/11 10:08:43;;;;;;;1.07;0.60;;;25.80;1.00;;;;;;5097922;28;20492;-78
2022/06/11 10:11:17;;;;;;;0.70;0.53;;;25.80;1.00;;;;;;5098096;28;20457;-78
2022/06/11 10:13:51;;;;;;;0.97;0.60;;;25.90;1.00;;;;;;5096936;28;20576;-79
2022/06/11 10:16:28;;;;;;;2.80;0.60;;;25.90;1.00;;;;;;5078977;28;20461;-79
2022/06/11 10:19:08;;;;;;;0.80;0.60;;;25.50;1.00;;;;;;5089474;28;20532;-77
2022/06/11 10:21:40;;;;;;;0.77;0.53;;;25.00;1.00;;;;;;5083477;28;20518;-78
2022/06/11 10:24:15;;;;;;;0.50;0.50;;;25.20;1.00;;;;;;5082039;28;20525;-80
2022/06/11 10:26:51;;;;;;;0.77;0.60;;;25.70;1.00;;;;;;5087875;28;20453;-80
2022/06/11 10:29:25;;;;;;;0.80;0.60;;;26.40;1.00;;;;;;5085815;28;20450;-79
2022/06/11 10:31:59;;;;;;;0.70;0.50;;;26.90;1.00;;;;;;5084796;28;20478;-80
2022/06/11 10:34:28;;;;;;;0.70;0.50;;;27.30;1.00;;;;;;5075646;28;20600;-81
2022/06/11 10:37:00;;;;;;;0.60;0.60;;;27.30;1.00;;;;;;5078168;28;20536;-80
2022/06/11 10:39:30;;;;;;;0.77;0.57;;;27.40;1.00;;;;;;5084199;28;20486;-80
2022/06/11 10:42:03;;;;;;;0.87;0.57;;;27.30;1.00;;;;;;5082332;28;20530;-82
2022/06/11 10:44:39;;;;;;;0.80;0.63;;;27.60;1.00;;;;;;5074932;28;20446;-80
2022/06/11 10:47:17;;;;;;;0.63;0.50;;;28.00;1.00;;;;;;5075722;28;20446;-80
2022/06/11 10:49:45;;;;;;;1.00;0.70;;;28.00;1.00;;;;;;5075680;28;20888;-80
2022/06/11 10:52:29;;;;;;;0.90;0.60;;;28.30;1.00;;;;;;5076269;28;20542;-81
2022/06/11 10:54:56;;;;;;;0.70;0.60;;;28.50;1.00;;;;;;5076005;28;20584;-80
2022/06/11 10:57:26;;;;;;;0.80;0.60;;;28.80;1.00;;;;;;5075683;28;20451;-80
2022/06/11 11:00:01;;;;;;;1.43;0.60;;;29.30;1.00;;;;;;5075516;28;20753;-80
2022/06/11 11:02:32;;;;;;;0.90;0.60;;;29.40;1.00;;;;;;5076680;28;20485;-78
2022/06/11 11:05:02;;;;;;;0.77;0.60;;;29.40;1.00;;;;;;5090144;28;20503;-75
2022/06/11 11:07:44;;;;;;;0.67;0.60;;;28.50;1.00;;;;;;5109225;28;20446;-80
2022/06/11 11:10:33;;;;;;;0.70;0.60;;;28.70;1.00;;;;;;5101566;28;20448;-79
2022/06/11 11:13:06;;;;;;;0.83;0.50;;;29.20;1.00;;;;;;5114169;28;20464;-79
2022/06/11 11:15:41;;;;;;;1.37;0.60;;;29.40;1.00;;;;;;5115566;28;20528;-78
2022/06/11 11:18:18;;;;;;;0.70;0.67;;;29.50;1.00;;;;;;5116796;28;20826;-79
2022/06/11 11:20:47;;;;;;;0.67;0.53;;;29.50;1.00;;;;;;5115717;28;20444;-77
2022/06/11 11:23:21;;;;;;;0.80;0.50;;;28.90;1.00;;;;;;5101586;28;20445;-77
2022/06/11 11:25:51;;;;;;;0.70;0.60;;;29.10;1.00;;;;;;5085585;28;20480;-78
2022/06/11 11:28:26;;;;;;;0.80;0.60;;;28.20;1.00;;;;;;5074785;28;21004;-78
2022/06/11 11:31:01;;;;;;;0.83;0.53;;;28.00;1.00;;;;;;5082610;28;20489;-76
2022/06/11 11:33:31;;;;;;;1.10;0.80;;;27.80;1.00;;;;;;5074831;28;20836;-79
2022/06/11 11:36:20;;;;;;;1.20;0.90;;;27.70;1.00;;;;;;5065448;28;20552;-78
2022/06/11 11:39:16;;;;;;;0.90;0.60;;;27.50;1.00;;;;;;5071449;28;20993;-75
2022/06/11 11:41:53;;;;;;;0.90;0.60;;;27.30;1.00;;;;;;5075128;28;20750;-80
2022/06/11 11:44:22;;;;;;;0.67;0.57;;;27.30;1.00;;;;;;5076203;28;20645;-79
2022/06/11 11:46:54;;;;;;;1.40;0.70;;;27.50;1.00;;;;;;5074964;28;20762;-79
2022/06/11 11:49:25;;;;;;;1.30;0.60;;;28.20;1.00;;;;;;5075194;28;20458;-79
2022/06/11 11:51:56;;;;;;;1.90;0.50;;;28.20;1.00;;;;;;5076649;28;20898;-78
2022/06/11 11:54:27;;;;;;;0.63;0.47;;;28.80;1.00;;;;;;5075166;28;20522;-79
2022/06/11 11:57:00;;;;;;;1.10;0.60;;;29.20;1.00;;;;;;5075160;28;20447;-75
2022/06/11 11:59:31;;;;;;;0.70;0.70;;;29.60;1.00;;;;;;5092946;28;20473;-78
2022/06/11 12:02:05;;;;;;;1.00;0.70;;;29.50;1.00;;;;;;5091980;28;20441;-75
2022/06/11 12:04:36;;;;;;;0.90;0.70;;;29.50;1.00;;;;;;5094755;28;20904;-76
2022/06/11 12:07:13;;;;;;;1.80;0.67;;;28.90;1.00;;;;;;5096684;28;20468;-77
2022/06/11 12:09:50;;;;;;;0.93;0.80;;;29.20;1.00;;;;;;5096754;28;20491;-76
2022/06/11 12:12:20;;;;;;;0.63;0.60;;;29.40;1.00;;;;;;5093424;28;20528;-77
2022/06/11 12:14:51;;;;;;;0.80;0.60;;;29.00;1.00;;;;;;5094609;28;20825;-76
2022/06/11 12:17:25;;;;;;;0.80;0.60;;;28.40;1.00;;;;;;5091488;28;20492;-75
2022/06/11 12:20:00;;;;;;;0.90;0.50;;;28.60;1.00;;;;;;5093828;28;20572;-76
2022/06/11 12:22:34;;;;;;;0.60;0.50;;;29.00;1.00;;;;;;5093309;28;21122;-76
2022/06/11 12:25:03;;;;;;;0.70;0.50;;;29.50;1.00;;;;;;5092763;28;20436;-75
2022/06/11 12:27:35;;;;;;;0.80;0.70;;;30.00;1.00;;;;;;5092229;28;20491;-76
2022/06/11 12:30:07;;;;;;;0.77;0.50;;;30.50;1.00;;;;;;5089426;28;20476;-76
2022/06/11 12:32:35;;;;;;;0.70;0.50;;;30.50;1.00;;;;;;5085513;28;20513;-76
2022/06/11 12:35:02;;;;;;;1.83;0.50;;;30.70;1.00;;;;;;5093139;28;20487;-76
2022/06/11 12:37:39;;;;;;;0.90;0.70;;;30.80;1.00;;;;;;5091647;28;20491;-77
2022/06/11 12:40:20;;;;;;;0.60;0.50;;;30.40;1.00;;;;;;5093412;28;20445;-78
2022/06/11 12:42:57;;;;;;;0.60;0.53;;;29.80;1.00;;;;;;5091857;28;20459;-76
2022/06/11 12:45:31;;;;;;;0.70;0.50;;;29.80;1.00;;;;;;5092397;28;20464;-77
2022/06/11 12:48:22;;;;;;;0.60;0.50;;;29.90;1.00;;;;;;5098414;28;20556;-76
2022/06/11 12:50:58;;;;;;;0.70;0.60;;;30.40;1.00;;;;;;5097901;28;20469;-77
2022/06/11 12:53:38;;;;;;;0.83;0.70;;;30.90;1.00;;;;;;5098671;28;20488;-77
2022/06/11 12:56:30;;;;;;;0.90;0.60;;;30.90;1.00;;;;;;5098784;28;20449;-78
2022/06/11 12:59:20;;;;;;;1.73;0.60;;;30.80;1.00;;;;;;5098669;28;20453;-77
2022/06/11 13:01:55;;;;;;;1.07;0.60;;;31.10;1.00;;;;;;5096006;28;20433;-77
2022/06/11 13:04:40;;;;;;;0.77;0.50;;;31.50;1.00;;;;;;5097500;28;20517;-78
2022/06/11 13:07:12;;;;;;;0.97;0.50;;;31.70;1.00;;;;;;5096952;28;20445;-78
2022/06/11 13:09:51;;;;;;;0.90;0.50;;;31.10;1.00;;;;;;5113641;28;20517;-77
2022/06/11 13:12:32;;;;;;;0.80;0.50;;;30.70;1.00;;;;;;5089430;28;20449;-77
2022/06/11 13:15:18;;;;;;;0.90;0.60;;;30.70;1.00;;;;;;5096119;28;20477;-78
2022/06/11 13:18:11;;;;;;;1.00;0.70;;;31.00;1.00;;;;;;5097513;28;20449;-78